sensor_id;sensor_type;location;lat;lon;timestamp;temperature;humidity
4374;DHT22;2201;51.100;6.814;2023-04-25T00:00:13;6.80;98.20
4374;DHT22;2201;51.100;6.814;2023-04-25T00:02:40;6.80;98.20
4374;DHT22;2201;51.100;6.814;2023-04-25T00:05:08;6.80;98.20
4374;DHT22;2201;51.100;6.814;2023-04-25T00:07:35;6.70;98.20
4374;DHT22;2201;51.100;6.814;2023-04-25T00:10:03;6.70;98.20
4374;DHT22;2201;51.100;6.814;2023-04-25T00:12:31;6.70;98.20
4374;DHT22;2201;51.100;6.814;2023-04-25T00:14:58;6.70;98.20
4374;DHT22;2201;51.100;6.814;2023-04-25T00:17:25;6.70;98.20
4374;DHT22;2201;51.100;6.814;2023-04-25T00:19:52;6.60;98.20
4374;DHT22;2201;51.100;6.814;2023-04-25T00:22:20;6.60;98.20
4374;DHT22;2201;51.100;6.814;2023-04-25T00:24:47;6.60;98.20
4374;DHT22;2201;51.100;6.814;2023-04-25T00:27:14;6.60;98.20
4374;DHT22;2201;51.100;6.814;2023-04-25T00:29:42;6.50;98.20
4374;DHT22;2201;51.100;6.814;2023-04-25T00:32:09;6.50;98.20
4374;DHT22;2201;51.100;6.814;2023-04-25T00:34:36;6.50;98.20
4374;DHT22;2201;51.100;6.814;2023-04-25T00:37:03;6.50;98.20
4374;DHT22;2201;51.100;6.814;2023-04-25T00:39:30;6.50;98.20
4374;DHT22;2201;51.100;6.814;2023-04-25T00:41:58;6.50;98.20
4374;DHT22;2201;51.100;6.814;2023-04-25T00:44:24;6.50;98.20
4374;DHT22;2201;51.100;6.814;2023-04-25T00:46:54;6.50;98.20
4374;DHT22;2201;51.100;6.814;2023-04-25T00:49:22;6.50;98.20
4374;DHT22;2201;51.100;6.814;2023-04-25T00:51:48;6.60;98.20
4374;DHT22;2201;51.100;6.814;2023-04-25T00:54:16;6.60;98.20
4374;DHT22;2201;51.100;6.814;2023-04-25T00:56:43;6.70;98.20
4374;DHT22;2201;51.100;6.814;2023-04-25T00:59:10;6.70;98.20
4374;DHT22;2201;51.100;6.814;2023-04-25T01:01:38;6.80;98.20
4374;DHT22;2201;51.100;6.814;2023-04-25T01:04:07;6.80;98.20
4374;DHT22;2201;51.100;6.814;2023-04-25T01:06:35;6.80;98.20
4374;DHT22;2201;51.100;6.814;2023-04-25T01:09:02;6.90;98.20
4374;DHT22;2201;51.100;6.814;2023-04-25T01:11:30;6.90;98.20
4374;DHT22;2201;51.100;6.814;2023-04-25T01:13:57;7.00;98.20
4374;DHT22;2201;51.100;6.814;2023-04-25T01:16:24;7.00;98.20
4374;DHT22;2201;51.100;6.814;2023-04-25T01:18:52;7.00;98.20
4374;DHT22;2201;51.100;6.814;2023-04-25T01:21:20;7.10;98.20
4374;DHT22;2201;51.100;6.814;2023-04-25T01:23:47;7.10;98.20
4374;DHT22;2201;51.100;6.814;2023-04-25T01:26:14;7.10;98.20
4374;DHT22;2201;51.100;6.814;2023-04-25T01:28:41;7.20;98.20
4374;DHT22;2201;51.100;6.814;2023-04-25T01:31:09;7.20;98.20
4374;DHT22;2201;51.100;6.814;2023-04-25T01:33:36;7.20;98.20
4374;DHT22;2201;51.100;6.814;2023-04-25T01:36:04;7.20;98.20
4374;DHT22;2201;51.100;6.814;2023-04-25T01:38:32;7.20;98.20
4374;DHT22;2201;51.100;6.814;2023-04-25T01:40:59;7.20;98.20
4374;DHT22;2201;51.100;6.814;2023-04-25T01:43:26;7.20;98.20
4374;DHT22;2201;51.100;6.814;2023-04-25T01:45:53;7.30;98.20
4374;DHT22;2201;51.100;6.814;2023-04-25T01:48:19;7.20;98.20
4374;DHT22;2201;51.100;6.814;2023-04-25T01:50:46;7.20;98.20
4374;DHT22;2201;51.100;6.814;2023-04-25T01:53:13;7.20;98.20
4374;DHT22;2201;51.100;6.814;2023-04-25T01:55:42;7.20;98.20
4374;DHT22;2201;51.100;6.814;2023-04-25T01:58:10;7.20;98.20
4374;DHT22;2201;51.100;6.814;2023-04-25T02:00:38;7.20;98.20
4374;DHT22;2201;51.100;6.814;2023-04-25T02:03:06;7.30;98.20
4374;DHT22;2201;51.100;6.814;2023-04-25T02:05:35;7.30;98.20
4374;DHT22;2201;51.100;6.814;2023-04-25T02:08:02;7.30;98.20
4374;DHT22;2201;51.100;6.814;2023-04-25T02:10:29;7.30;98.20
4374;DHT22;2201;51.100;6.814;2023-04-25T02:12:58;7.30;98.20
4374;DHT22;2201;51.100;6.814;2023-04-25T02:15:25;7.20;98.20
4374;DHT22;2201;51.100;6.814;2023-04-25T02:17:52;7.20;98.20
4374;DHT22;2201;51.100;6.814;2023-04-25T02:20:19;7.20;98.20
4374;DHT22;2201;51.100;6.814;2023-04-25T02:22:47;7.20;98.20
4374;DHT22;2201;51.100;6.814;2023-04-25T02:25:13;7.20;98.20
4374;DHT22;2201;51.100;6.814;2023-04-25T02:27:41;7.30;98.20
4374;DHT22;2201;51.100;6.814;2023-04-25T02:30:10;7.20;98.20
4374;DHT22;2201;51.100;6.814;2023-04-25T02:32:38;7.30;98.20
4374;DHT22;2201;51.100;6.814;2023-04-25T02:35:06;7.30;98.20
4374;DHT22;2201;51.100;6.814;2023-04-25T02:37:34;7.30;98.20
4374;DHT22;2201;51.100;6.814;2023-04-25T02:40:01;7.30;98.20
4374;DHT22;2201;51.100;6.814;2023-04-25T02:42:29;7.30;98.20
4374;DHT22;2201;51.100;6.814;2023-04-25T02:44:56;7.30;98.20
4374;DHT22;2201;51.100;6.814;2023-04-25T02:47:24;7.30;98.20
4374;DHT22;2201;51.100;6.814;2023-04-25T02:49:51;7.40;98.20
4374;DHT22;2201;51.100;6.814;2023-04-25T02:52:18;7.40;98.20
4374;DHT22;2201;51.100;6.814;2023-04-25T02:54:46;7.40;98.20
4374;DHT22;2201;51.100;6.814;2023-04-25T02:57:13;7.40;98.20
4374;DHT22;2201;51.100;6.814;2023-04-25T02:59:40;7.40;98.20
4374;DHT22;2201;51.100;6.814;2023-04-25T03:02:07;7.40;98.20
4374;DHT22;2201;51.100;6.814;2023-04-25T03:04:35;7.50;98.20
4374;DHT22;2201;51.100;6.814;2023-04-25T03:07:02;7.50;98.20
4374;DHT22;2201;51.100;6.814;2023-04-25T03:09:29;7.50;98.20
4374;DHT22;2201;51.100;6.814;2023-04-25T03:11:56;7.50;98.20
4374;DHT22;2201;51.100;6.814;2023-04-25T03:14:23;7.50;98.20
4374;DHT22;2201;51.100;6.814;2023-04-25T03:16:50;7.50;98.20
4374;DHT22;2201;51.100;6.814;2023-04-25T03:19:16;7.50;98.20
4374;DHT22;2201;51.100;6.814;2023-04-25T03:21:45;7.50;98.20
4374;DHT22;2201;51.100;6.814;2023-04-25T03:24:12;7.50;98.20
4374;DHT22;2201;51.100;6.814;2023-04-25T03:26:39;7.50;98.20
4374;DHT22;2201;51.100;6.814;2023-04-25T03:29:06;7.50;98.20
4374;DHT22;2201;51.100;6.814;2023-04-25T03:31:32;7.50;98.20
4374;DHT22;2201;51.100;6.814;2023-04-25T03:33:59;7.50;98.20
4374;DHT22;2201;51.100;6.814;2023-04-25T03:36:26;7.60;98.20
4374;DHT22;2201;51.100;6.814;2023-04-25T03:38:54;7.60;98.20
4374;DHT22;2201;51.100;6.814;2023-04-25T03:41:21;7.50;98.20
4374;DHT22;2201;51.100;6.814;2023-04-25T03:43:48;7.50;98.20
4374;DHT22;2201;51.100;6.814;2023-04-25T03:46:15;7.50;98.20
4374;DHT22;2201;51.100;6.814;2023-04-25T03:48:42;7.50;98.20
4374;DHT22;2201;51.100;6.814;2023-04-25T03:51:09;7.50;98.20
4374;DHT22;2201;51.100;6.814;2023-04-25T03:53:36;7.50;98.20
4374;DHT22;2201;51.100;6.814;2023-04-25T03:56:04;7.50;98.20
4374;DHT22;2201;51.100;6.814;2023-04-25T03:58:31;7.50;98.20
4374;DHT22;2201;51.100;6.814;2023-04-25T04:00:58;7.50;98.20
4374;DHT22;2201;51.100;6.814;2023-04-25T04:03:25;7.50;98.20
4374;DHT22;2201;51.100;6.814;2023-04-25T04:05:51;7.50;98.20
4374;DHT22;2201;51.100;6.814;2023-04-25T04:08:18;7.50;98.20
4374;DHT22;2201;51.100;6.814;2023-04-25T04:10:45;7.50;98.20
4374;DHT22;2201;51.100;6.814;2023-04-25T04:13:13;7.50;98.20
4374;DHT22;2201;51.100;6.814;2023-04-25T04:15:40;7.50;98.20
4374;DHT22;2201;51.100;6.814;2023-04-25T04:18:07;7.50;98.20
4374;DHT22;2201;51.100;6.814;2023-04-25T04:20:34;7.50;98.20
4374;DHT22;2201;51.100;6.814;2023-04-25T04:23:00;7.50;98.20
4374;DHT22;2201;51.100;6.814;2023-04-25T04:25:27;7.50;98.20
4374;DHT22;2201;51.100;6.814;2023-04-25T04:27:55;7.50;98.20
4374;DHT22;2201;51.100;6.814;2023-04-25T04:30:24;7.50;98.20
4374;DHT22;2201;51.100;6.814;2023-04-25T04:32:51;7.50;98.20
4374;DHT22;2201;51.100;6.814;2023-04-25T04:35:19;7.50;98.20
4374;DHT22;2201;51.100;6.814;2023-04-25T04:37:46;7.50;98.20
4374;DHT22;2201;51.100;6.814;2023-04-25T04:40:13;7.50;98.20
4374;DHT22;2201;51.100;6.814;2023-04-25T04:42:41;7.50;98.20
4374;DHT22;2201;51.100;6.814;2023-04-25T04:45:09;7.50;98.20
4374;DHT22;2201;51.100;6.814;2023-04-25T04:47:38;7.50;98.20
4374;DHT22;2201;51.100;6.814;2023-04-25T04:50:06;7.40;98.20
4374;DHT22;2201;51.100;6.814;2023-04-25T04:52:34;7.40;98.20
4374;DHT22;2201;51.100;6.814;2023-04-25T04:55:00;7.40;98.20
4374;DHT22;2201;51.100;6.814;2023-04-25T04:57:28;7.40;98.20
4374;DHT22;2201;51.100;6.814;2023-04-25T04:59:56;7.40;98.20
4374;DHT22;2201;51.100;6.814;2023-04-25T05:02:23;7.40;98.20
4374;DHT22;2201;51.100;6.814;2023-04-25T05:04:52;7.40;98.20
4374;DHT22;2201;51.100;6.814;2023-04-25T05:07:19;7.40;98.20
4374;DHT22;2201;51.100;6.814;2023-04-25T05:09:46;7.40;98.20
4374;DHT22;2201;51.100;6.814;2023-04-25T05:12:13;7.40;98.20
4374;DHT22;2201;51.100;6.814;2023-04-25T05:14:40;7.40;98.20
4374;DHT22;2201;51.100;6.814;2023-04-25T05:17:07;7.40;98.20
4374;DHT22;2201;51.100;6.814;2023-04-25T05:19:34;7.50;98.20
4374;DHT22;2201;51.100;6.814;2023-04-25T05:22:02;7.50;98.20
4374;DHT22;2201;51.100;6.814;2023-04-25T05:24:29;7.60;98.20
4374;DHT22;2201;51.100;6.814;2023-04-25T05:26:57;7.60;98.20
4374;DHT22;2201;51.100;6.814;2023-04-25T05:29:24;7.70;98.20
4374;DHT22;2201;51.100;6.814;2023-04-25T05:31:51;7.80;98.20
4374;DHT22;2201;51.100;6.814;2023-04-25T05:34:18;7.90;98.20
4374;DHT22;2201;51.100;6.814;2023-04-25T05:36:45;8.00;98.20
4374;DHT22;2201;51.100;6.814;2023-04-25T05:39:15;8.20;98.20
4374;DHT22;2201;51.100;6.814;2023-04-25T05:41:42;8.30;98.20
4374;DHT22;2201;51.100;6.814;2023-04-25T05:44:09;8.40;98.20
4374;DHT22;2201;51.100;6.814;2023-04-25T05:46:36;8.50;98.20
4374;DHT22;2201;51.100;6.814;2023-04-25T05:49:03;8.60;98.20
4374;DHT22;2201;51.100;6.814;2023-04-25T05:51:30;8.60;98.20
4374;DHT22;2201;51.100;6.814;2023-04-25T05:53:57;8.70;98.20
4374;DHT22;2201;51.100;6.814;2023-04-25T05:56:25;8.80;98.20
4374;DHT22;2201;51.100;6.814;2023-04-25T05:58:52;8.90;98.20
4374;DHT22;2201;51.100;6.814;2023-04-25T06:01:18;9.00;98.20
4374;DHT22;2201;51.100;6.814;2023-04-25T06:03:46;9.10;98.20
4374;DHT22;2201;51.100;6.814;2023-04-25T06:06:12;9.40;98.20
4374;DHT22;2201;51.100;6.814;2023-04-25T06:08:40;9.50;98.20
4374;DHT22;2201;51.100;6.814;2023-04-25T06:11:06;9.70;98.20
4374;DHT22;2201;51.100;6.814;2023-04-25T06:13:34;9.80;98.20
4374;DHT22;2201;51.100;6.814;2023-04-25T06:16:01;9.80;98.20
4374;DHT22;2201;51.100;6.814;2023-04-25T06:18:28;9.80;98.20
4374;DHT22;2201;51.100;6.814;2023-04-25T06:20:55;9.80;98.20
4374;DHT22;2201;51.100;6.814;2023-04-25T06:23:22;9.70;98.20
4374;DHT22;2201;51.100;6.814;2023-04-25T06:25:49;9.60;98.20
4374;DHT22;2201;51.100;6.814;2023-04-25T06:28:15;9.60;98.20
4374;DHT22;2201;51.100;6.814;2023-04-25T06:30:43;9.60;98.20
4374;DHT22;2201;51.100;6.814;2023-04-25T06:33:10;9.50;98.20
4374;DHT22;2201;51.100;6.814;2023-04-25T06:35:37;9.50;98.20
4374;DHT22;2201;51.100;6.814;2023-04-25T06:38:04;9.40;98.20
4374;DHT22;2201;51.100;6.814;2023-04-25T06:40:30;9.50;98.20
4374;DHT22;2201;51.100;6.814;2023-04-25T06:42:57;9.60;98.20
4374;DHT22;2201;51.100;6.814;2023-04-25T06:45:24;9.70;98.20
4374;DHT22;2201;51.100;6.814;2023-04-25T06:47:52;9.80;98.20
4374;DHT22;2201;51.100;6.814;2023-04-25T06:50:19;9.90;98.20
4374;DHT22;2201;51.100;6.814;2023-04-25T06:52:46;10.00;98.20
4374;DHT22;2201;51.100;6.814;2023-04-25T06:55:13;10.10;98.20
4374;DHT22;2201;51.100;6.814;2023-04-25T06:57:39;10.20;98.20
4374;DHT22;2201;51.100;6.814;2023-04-25T07:00:07;10.30;98.20
4374;DHT22;2201;51.100;6.814;2023-04-25T07:02:35;10.40;98.20
4374;DHT22;2201;51.100;6.814;2023-04-25T07:05:03;10.50;98.20
4374;DHT22;2201;51.100;6.814;2023-04-25T07:07:31;10.40;98.20
4374;DHT22;2201;51.100;6.814;2023-04-25T07:09:57;10.30;98.20
4374;DHT22;2201;51.100;6.814;2023-04-25T07:12:24;10.30;98.20
4374;DHT22;2201;51.100;6.814;2023-04-25T07:14:51;10.40;98.20
4374;DHT22;2201;51.100;6.814;2023-04-25T07:17:18;10.50;98.20
4374;DHT22;2201;51.100;6.814;2023-04-25T07:19:45;10.50;98.20
4374;DHT22;2201;51.100;6.814;2023-04-25T07:22:13;10.50;98.20
4374;DHT22;2201;51.100;6.814;2023-04-25T07:24:40;10.50;98.20
4374;DHT22;2201;51.100;6.814;2023-04-25T07:27:07;10.60;98.20
4374;DHT22;2201;51.100;6.814;2023-04-25T07:29:33;10.70;98.20
4374;DHT22;2201;51.100;6.814;2023-04-25T07:32:02;10.70;98.20
4374;DHT22;2201;51.100;6.814;2023-04-25T07:34:30;10.80;98.20
4374;DHT22;2201;51.100;6.814;2023-04-25T07:36:57;10.80;98.20
4374;DHT22;2201;51.100;6.814;2023-04-25T07:39:26;10.80;98.20
4374;DHT22;2201;51.100;6.814;2023-04-25T07:41:53;10.90;98.20
4374;DHT22;2201;51.100;6.814;2023-04-25T07:44:20;11.00;98.20
4374;DHT22;2201;51.100;6.814;2023-04-25T07:46:47;11.00;98.20
4374;DHT22;2201;51.100;6.814;2023-04-25T07:49:13;11.10;98.20
4374;DHT22;2201;51.100;6.814;2023-04-25T07:51:40;11.10;98.20
4374;DHT22;2201;51.100;6.814;2023-04-25T07:54:08;11.00;98.20
4374;DHT22;2201;51.100;6.814;2023-04-25T07:56:36;10.90;98.20
4374;DHT22;2201;51.100;6.814;2023-04-25T07:59:03;10.70;98.20
4374;DHT22;2201;51.100;6.814;2023-04-25T08:01:30;10.80;98.20
4374;DHT22;2201;51.100;6.814;2023-04-25T08:03:57;10.90;98.20
4374;DHT22;2201;51.100;6.814;2023-04-25T08:06:24;11.00;98.20
4374;DHT22;2201;51.100;6.814;2023-04-25T08:08:51;11.00;98.20
4374;DHT22;2201;51.100;6.814;2023-04-25T08:11:17;11.00;98.20
4374;DHT22;2201;51.100;6.814;2023-04-25T08:13:45;11.00;98.20
4374;DHT22;2201;51.100;6.814;2023-04-25T08:16:12;10.80;98.20
4374;DHT22;2201;51.100;6.814;2023-04-25T08:18:39;10.70;97.80
4374;DHT22;2201;51.100;6.814;2023-04-25T08:21:06;10.70;98.20
4374;DHT22;2201;51.100;6.814;2023-04-25T08:23:34;10.70;98.20
4374;DHT22;2201;51.100;6.814;2023-04-25T08:26:01;10.70;98.20
4374;DHT22;2201;51.100;6.814;2023-04-25T08:28:27;10.70;98.20
4374;DHT22;2201;51.100;6.814;2023-04-25T08:30:55;10.70;97.10
4374;DHT22;2201;51.100;6.814;2023-04-25T08:33:22;10.60;98.00
4374;DHT22;2201;51.100;6.814;2023-04-25T08:35:49;10.60;97.70
4374;DHT22;2201;51.100;6.814;2023-04-25T08:38:17;10.60;97.70
4374;DHT22;2201;51.100;6.814;2023-04-25T08:40:44;10.70;98.20
4374;DHT22;2201;51.100;6.814;2023-04-25T08:43:13;11.10;98.20
4374;DHT22;2201;51.100;6.814;2023-04-25T08:45:41;11.50;96.50
4374;DHT22;2201;51.100;6.814;2023-04-25T08:48:11;11.90;94.30
4374;DHT22;2201;51.100;6.814;2023-04-25T08:50:40;12.40;95.20
4374;DHT22;2201;51.100;6.814;2023-04-25T08:53:09;12.70;93.20
4374;DHT22;2201;51.100;6.814;2023-04-25T08:55:42;13.00;90.50
4374;DHT22;2201;51.100;6.814;2023-04-25T08:58:09;13.20;90.00
4374;DHT22;2201;51.100;6.814;2023-04-25T09:00:37;13.40;90.10
4374;DHT22;2201;51.100;6.814;2023-04-25T09:03:04;13.60;87.60
4374;DHT22;2201;51.100;6.814;2023-04-25T09:05:32;13.80;85.80
4374;DHT22;2201;51.100;6.814;2023-04-25T09:08:00;13.80;86.50
4374;DHT22;2201;51.100;6.814;2023-04-25T09:10:27;13.60;87.50
4374;DHT22;2201;51.100;6.814;2023-04-25T09:13:06;13.40;87.20
4374;DHT22;2201;51.100;6.814;2023-04-25T09:15:47;13.20;88.20
4374;DHT22;2201;51.100;6.814;2023-04-25T09:18:14;13.00;87.90
4374;DHT22;2201;51.100;6.814;2023-04-25T09:20:49;12.90;88.00
4374;DHT22;2201;51.100;6.814;2023-04-25T09:23:16;13.00;89.80
4374;DHT22;2201;51.100;6.814;2023-04-25T09:25:47;13.30;88.00
4374;DHT22;2201;51.100;6.814;2023-04-25T09:28:14;13.60;85.50
4374;DHT22;2201;51.100;6.814;2023-04-25T09:30:41;13.60;83.60
4374;DHT22;2201;51.100;6.814;2023-04-25T09:33:10;13.50;83.50
4374;DHT22;2201;51.100;6.814;2023-04-25T09:35:38;13.30;81.80
4374;DHT22;2201;51.100;6.814;2023-04-25T09:38:11;13.10;83.00
4374;DHT22;2201;51.100;6.814;2023-04-25T09:40:42;13.00;82.90
4374;DHT22;2201;51.100;6.814;2023-04-25T09:43:09;12.90;84.70
4374;DHT22;2201;51.100;6.814;2023-04-25T09:45:46;12.90;84.40
4374;DHT22;2201;51.100;6.814;2023-04-25T09:48:17;12.90;84.60
4374;DHT22;2201;51.100;6.814;2023-04-25T09:50:44;12.90;86.30
4374;DHT22;2201;51.100;6.814;2023-04-25T09:53:13;13.10;85.10
4374;DHT22;2201;51.100;6.814;2023-04-25T09:55:41;13.20;86.10
4374;DHT22;2201;51.100;6.814;2023-04-25T09:58:11;13.40;85.30
4374;DHT22;2201;51.100;6.814;2023-04-25T10:00:41;13.70;85.20
4374;DHT22;2201;51.100;6.814;2023-04-25T10:03:07;14.10;86.50
4374;DHT22;2201;51.100;6.814;2023-04-25T10:05:35;14.40;82.90
4374;DHT22;2201;51.100;6.814;2023-04-25T10:08:03;14.70;81.80
4374;DHT22;2201;51.100;6.814;2023-04-25T10:10:32;14.80;79.80
4374;DHT22;2201;51.100;6.814;2023-04-25T10:13:04;14.50;80.50
4374;DHT22;2201;51.100;6.814;2023-04-25T10:15:32;14.40;82.20
4374;DHT22;2201;51.100;6.814;2023-04-25T10:18:00;14.10;82.10
4374;DHT22;2201;51.100;6.814;2023-04-25T10:20:28;13.90;82.90
4374;DHT22;2201;51.100;6.814;2023-04-25T10:23:01;13.50;82.60
4374;DHT22;2201;51.100;6.814;2023-04-25T10:25:29;13.20;83.30
4374;DHT22;2201;51.100;6.814;2023-04-25T10:28:20;13.00;83.10
4374;DHT22;2201;51.100;6.814;2023-04-25T10:30:59;12.90;83.90
4374;DHT22;2201;51.100;6.814;2023-04-25T10:33:32;12.90;84.10
4374;DHT22;2201;51.100;6.814;2023-04-25T10:36:08;13.00;82.80
4374;DHT22;2201;51.100;6.814;2023-04-25T10:38:36;13.40;85.60
4374;DHT22;2201;51.100;6.814;2023-04-25T10:41:03;13.60;84.00
4374;DHT22;2201;51.100;6.814;2023-04-25T10:43:38;14.10;82.90
4374;DHT22;2201;51.100;6.814;2023-04-25T10:46:18;14.80;81.80
4374;DHT22;2201;51.100;6.814;2023-04-25T10:48:50;15.30;81.50
4374;DHT22;2201;51.100;6.814;2023-04-25T10:51:20;15.40;77.50
4374;DHT22;2201;51.100;6.814;2023-04-25T10:53:56;15.10;77.30
4374;DHT22;2201;51.100;6.814;2023-04-25T10:56:25;14.70;79.30
4374;DHT22;2201;51.100;6.814;2023-04-25T10:59:04;14.50;80.10
4374;DHT22;2201;51.100;6.814;2023-04-25T11:01:36;14.50;79.80
4374;DHT22;2201;51.100;6.814;2023-04-25T11:04:03;14.60;81.80
4374;DHT22;2201;51.100;6.814;2023-04-25T11:06:37;14.80;79.50
4374;DHT22;2201;51.100;6.814;2023-04-25T11:09:10;14.80;80.00
4374;DHT22;2201;51.100;6.814;2023-04-25T11:11:39;14.80;79.10
4374;DHT22;2201;51.100;6.814;2023-04-25T11:14:07;14.60;78.90
4374;DHT22;2201;51.100;6.814;2023-04-25T11:16:34;14.50;80.40
4374;DHT22;2201;51.100;6.814;2023-04-25T11:19:01;14.60;78.40
4374;DHT22;2201;51.100;6.814;2023-04-25T11:21:29;14.50;77.50
4374;DHT22;2201;51.100;6.814;2023-04-25T11:24:00;14.50;76.90
4374;DHT22;2201;51.100;6.814;2023-04-25T11:26:27;14.50;77.40
4374;DHT22;2201;51.100;6.814;2023-04-25T11:28:57;14.40;76.70
4374;DHT22;2201;51.100;6.814;2023-04-25T11:31:26;14.60;77.30
4374;DHT22;2201;51.100;6.814;2023-04-25T11:33:53;14.90;75.30
4374;DHT22;2201;51.100;6.814;2023-04-25T11:36:22;15.20;76.70
4374;DHT22;2201;51.100;6.814;2023-04-25T11:38:51;15.60;76.80
4374;DHT22;2201;51.100;6.814;2023-04-25T11:41:18;16.00;73.40
4374;DHT22;2201;51.100;6.814;2023-04-25T11:43:45;16.30;72.70
4374;DHT22;2201;51.100;6.814;2023-04-25T11:46:12;16.50;72.60
4374;DHT22;2201;51.100;6.814;2023-04-25T11:48:42;16.80;73.10
4374;DHT22;2201;51.100;6.814;2023-04-25T11:51:09;17.10;72.10
4374;DHT22;2201;51.100;6.814;2023-04-25T11:53:36;17.00;71.90
4374;DHT22;2201;51.100;6.814;2023-04-25T11:56:09;16.80;71.70
4374;DHT22;2201;51.100;6.814;2023-04-25T11:58:55;16.40;71.90
4374;DHT22;2201;51.100;6.814;2023-04-25T12:01:26;16.20;72.50
4374;DHT22;2201;51.100;6.814;2023-04-25T12:03:54;16.10;74.00
4374;DHT22;2201;51.100;6.814;2023-04-25T12:06:21;15.90;71.90
4374;DHT22;2201;51.100;6.814;2023-04-25T12:09:02;15.70;72.20
4374;DHT22;2201;51.100;6.814;2023-04-25T12:11:30;15.30;71.30
4374;DHT22;2201;51.100;6.814;2023-04-25T12:14:02;15.00;72.90
4374;DHT22;2201;51.100;6.814;2023-04-25T12:16:30;14.60;73.70
4374;DHT22;2201;51.100;6.814;2023-04-25T12:19:07;14.20;75.00
4374;DHT22;2201;51.100;6.814;2023-04-25T12:21:34;14.00;75.80
4374;DHT22;2201;51.100;6.814;2023-04-25T12:24:10;13.80;76.70
4374;DHT22;2201;51.100;6.814;2023-04-25T12:26:48;13.60;77.00
4374;DHT22;2201;51.100;6.814;2023-04-25T12:29:16;13.40;78.20
4374;DHT22;2201;51.100;6.814;2023-04-25T12:31:43;13.30;78.70
4374;DHT22;2201;51.100;6.814;2023-04-25T12:34:13;13.10;80.40
4374;DHT22;2201;51.100;6.814;2023-04-25T12:36:40;13.10;81.60
4374;DHT22;2201;51.100;6.814;2023-04-25T12:39:06;13.10;81.90
4374;DHT22;2201;51.100;6.814;2023-04-25T12:41:33;13.10;82.60
4374;DHT22;2201;51.100;6.814;2023-04-25T12:44:00;13.20;81.50
4374;DHT22;2201;51.100;6.814;2023-04-25T12:46:27;13.40;81.80
4374;DHT22;2201;51.100;6.814;2023-04-25T12:48:54;13.50;81.10
4374;DHT22;2201;51.100;6.814;2023-04-25T12:51:23;13.70;80.90
4374;DHT22;2201;51.100;6.814;2023-04-25T12:53:51;13.90;80.00
4374;DHT22;2201;51.100;6.814;2023-04-25T12:56:18;14.10;79.70
4374;DHT22;2201;51.100;6.814;2023-04-25T12:58:45;14.30;77.30
4374;DHT22;2201;51.100;6.814;2023-04-25T13:01:13;14.50;75.40
4374;DHT22;2201;51.100;6.814;2023-04-25T13:03:40;14.80;73.60
4374;DHT22;2201;51.100;6.814;2023-04-25T13:06:07;15.10;75.10
4374;DHT22;2201;51.100;6.814;2023-04-25T13:08:35;15.50;74.00
4374;DHT22;2201;51.100;6.814;2023-04-25T13:11:03;15.80;71.60
4374;DHT22;2201;51.100;6.814;2023-04-25T13:13:30;15.90;70.80
4374;DHT22;2201;51.100;6.814;2023-04-25T13:15:58;16.00;71.60
4374;DHT22;2201;51.100;6.814;2023-04-25T13:18:24;16.20;75.40
4374;DHT22;2201;51.100;6.814;2023-04-25T13:20:52;16.20;77.50
4374;DHT22;2201;51.100;6.814;2023-04-25T13:23:19;16.20;78.40
4374;DHT22;2201;51.100;6.814;2023-04-25T13:25:48;16.40;77.50
4374;DHT22;2201;51.100;6.814;2023-04-25T13:28:14;16.50;79.30
4374;DHT22;2201;51.100;6.814;2023-04-25T13:30:41;16.80;79.20
4374;DHT22;2201;51.100;6.814;2023-04-25T13:33:08;17.10;76.70
4374;DHT22;2201;51.100;6.814;2023-04-25T13:35:36;17.00;73.40
4374;DHT22;2201;51.100;6.814;2023-04-25T13:38:04;16.90;74.10
4374;DHT22;2201;51.100;6.814;2023-04-25T13:40:31;16.70;73.70
4374;DHT22;2201;51.100;6.814;2023-04-25T13:42:59;16.40;73.50
4374;DHT22;2201;51.100;6.814;2023-04-25T13:45:26;16.10;74.50
4374;DHT22;2201;51.100;6.814;2023-04-25T13:47:53;15.70;77.00
4374;DHT22;2201;51.100;6.814;2023-04-25T13:50:19;15.40;77.50
4374;DHT22;2201;51.100;6.814;2023-04-25T13:52:46;15.20;79.00
4374;DHT22;2201;51.100;6.814;2023-04-25T13:55:13;15.00;79.00
4374;DHT22;2201;51.100;6.814;2023-04-25T13:57:40;15.00;79.70
4374;DHT22;2201;51.100;6.814;2023-04-25T14:00:09;15.00;75.70
4374;DHT22;2201;51.100;6.814;2023-04-25T14:02:36;14.90;73.60
4374;DHT22;2201;51.100;6.814;2023-04-25T14:05:04;15.00;74.60
4374;DHT22;2201;51.100;6.814;2023-04-25T14:07:33;14.90;72.50
4374;DHT22;2201;51.100;6.814;2023-04-25T14:10:00;14.90;73.60
4374;DHT22;2201;51.100;6.814;2023-04-25T14:12:27;14.70;73.30
4374;DHT22;2201;51.100;6.814;2023-04-25T14:14:54;14.60;73.10
4374;DHT22;2201;51.100;6.814;2023-04-25T14:17:22;14.70;75.10
4374;DHT22;2201;51.100;6.814;2023-04-25T14:19:49;15.00;75.60
4374;DHT22;2201;51.100;6.814;2023-04-25T14:22:16;15.40;74.50
4374;DHT22;2201;51.100;6.814;2023-04-25T14:24:43;15.60;72.80
4374;DHT22;2201;51.100;6.814;2023-04-25T14:27:10;15.90;75.10
4374;DHT22;2201;51.100;6.814;2023-04-25T14:29:37;16.20;73.70
4374;DHT22;2201;51.100;6.814;2023-04-25T14:32:04;16.40;73.00
4374;DHT22;2201;51.100;6.814;2023-04-25T14:34:33;16.60;72.30
4374;DHT22;2201;51.100;6.814;2023-04-25T14:37:00;16.50;72.30
4374;DHT22;2201;51.100;6.814;2023-04-25T14:39:27;16.30;71.60
4374;DHT22;2201;51.100;6.814;2023-04-25T14:41:53;16.10;72.80
4374;DHT22;2201;51.100;6.814;2023-04-25T14:44:21;16.00;74.20
4374;DHT22;2201;51.100;6.814;2023-04-25T14:46:48;16.10;73.80
4374;DHT22;2201;51.100;6.814;2023-04-25T14:49:17;16.20;74.30
4374;DHT22;2201;51.100;6.814;2023-04-25T14:51:45;16.40;73.30
4374;DHT22;2201;51.100;6.814;2023-04-25T14:54:12;16.40;72.30
4374;DHT22;2201;51.100;6.814;2023-04-25T14:56:39;16.50;72.20
4374;DHT22;2201;51.100;6.814;2023-04-25T14:59:06;16.60;73.60
4374;DHT22;2201;51.100;6.814;2023-04-25T15:01:33;16.80;73.60
4374;DHT22;2201;51.100;6.814;2023-04-25T15:04:00;16.90;72.40
4374;DHT22;2201;51.100;6.814;2023-04-25T15:06:27;17.00;72.90
4374;DHT22;2201;51.100;6.814;2023-04-25T15:08:57;17.20;72.20
4374;DHT22;2201;51.100;6.814;2023-04-25T15:11:24;17.20;72.90
4374;DHT22;2201;51.100;6.814;2023-04-25T15:13:51;17.20;72.60
4374;DHT22;2201;51.100;6.814;2023-04-25T15:16:18;16.80;72.30
4374;DHT22;2201;51.100;6.814;2023-04-25T15:18:45;16.30;74.20
4374;DHT22;2201;51.100;6.814;2023-04-25T15:21:12;16.00;74.90
4374;DHT22;2201;51.100;6.814;2023-04-25T15:23:39;15.70;75.70
4374;DHT22;2201;51.100;6.814;2023-04-25T15:26:08;15.50;75.50
4374;DHT22;2201;51.100;6.814;2023-04-25T15:28:35;15.30;76.50
4374;DHT22;2201;51.100;6.814;2023-04-25T15:31:01;15.30;76.30
4374;DHT22;2201;51.100;6.814;2023-04-25T15:33:29;15.10;76.60
4374;DHT22;2201;51.100;6.814;2023-04-25T15:35:56;15.00;76.20
4374;DHT22;2201;51.100;6.814;2023-04-25T15:38:23;14.90;75.90
4374;DHT22;2201;51.100;6.814;2023-04-25T15:40:51;14.80;77.10
4374;DHT22;2201;51.100;6.814;2023-04-25T15:43:20;14.60;78.10
4374;DHT22;2201;51.100;6.814;2023-04-25T15:45:47;14.60;78.40
4374;DHT22;2201;51.100;6.814;2023-04-25T15:48:14;14.50;77.90
4374;DHT22;2201;51.100;6.814;2023-04-25T15:50:41;14.50;78.00
4374;DHT22;2201;51.100;6.814;2023-04-25T15:53:08;14.70;79.50
4374;DHT22;2201;51.100;6.814;2023-04-25T15:55:35;15.00;76.50
4374;DHT22;2201;51.100;6.814;2023-04-25T15:58:02;15.30;76.70
4374;DHT22;2201;51.100;6.814;2023-04-25T16:00:30;15.50;74.50
4374;DHT22;2201;51.100;6.814;2023-04-25T16:03:01;15.50;75.20
4374;DHT22;2201;51.100;6.814;2023-04-25T16:05:28;15.50;75.50
4374;DHT22;2201;51.100;6.814;2023-04-25T16:07:55;15.20;74.80
4374;DHT22;2201;51.100;6.814;2023-04-25T16:10:22;15.00;76.10
4374;DHT22;2201;51.100;6.814;2023-04-25T16:12:49;14.90;76.40